Estación Meteorológica Peña el Pijo (Robertgarden) [ 01/30/23 14:33:59 CET ]

Fecha Hora Presion(HPa) Temp (°C) Humedad % Rocio (°C) Viento ( m/s) Direccion Lluvia 1Hora(mm) Lluvia 24H(mm) LLuvia Total(mm)
2010-Sep-30 01:01:14 1014.600 8.9 67 3.1         160.58
2010-Sep-30 02:01:11 1014.500 7.9 70 2.8         160.58
2010-Sep-30 03:03:16 1014.100 7.6 72 2.9         160.58
2010-Sep-30 04:01:12 1013.700 7.3 74 3.0         160.58
2010-Sep-30 05:01:13 1013.500 6.9 77 3.1         160.58
2010-Sep-30 06:01:12 1013.300 6.5 79 3.1         160.58
2010-Sep-30 07:01:12 1013.400 6.2 80 3.0         160.58
2010-Sep-30 08:01:16 1013.400 6.1 82 3.2         160.58
2010-Sep-30 09:01:12 1013.400 6.5 82 3.6         160.58
2010-Sep-30 10:01:17 1013.800 15.0 66 8.7         160.58
2010-Sep-30 11:01:20 1013.200 21.2 48 9.7         160.58
2010-Sep-30 12:01:14 1013.100 25.9 35 9.2         160.58
2010-Sep-30 13:01:13 1012.700 28.6 27 7.6         160.58
2010-Sep-30 14:01:16 1012.400 29.8 23 6.2 0.8 NE     160.58
2010-Sep-30 15:01:21 1011.400 30.1 22 5.9         160.58
2010-Sep-30 16:01:14 1011.300 30.7 21 5.8 0.5 SSW     160.58
2010-Sep-30 17:01:12 1010.600 29.4 19 3.2         160.58
2010-Sep-30 18:01:14 1010.600 25.9 23 3.0 1.7 S     160.58
2010-Sep-30 19:01:13 1010.800 22.9 26 2.2         160.58
2010-Sep-30 20:01:12 1011.100 20.3 32 3.0         160.58
2010-Sep-30 21:01:16 1011.900 15.8 44 3.5         160.58
2010-Sep-30 22:01:12 1012.600 12.5 56 3.9         160.58
2010-Sep-30 23:01:11 1012.500 10.9 61 3.6         160.58

Temperatura Máxima:30°    Temperatura Mínima:
Presión Máxima:1014.600 Hpa    Presión Mínima:1010.600 Hpa


Volver